sensor_id;sensor_type;location;lat;lon;timestamp;P1;durP1;ratioP1;P2;durP2;ratioP2
62711;SDS011;48772;55.586;37.730;2024-03-22T00:00:17;21.80;;;9.30;;
62711;SDS011;48772;55.586;37.730;2024-03-22T00:02:43;31.60;;;9.68;;
62711;SDS011;48772;55.586;37.730;2024-03-22T00:05:09;29.70;;;9.88;;
62711;SDS011;48772;55.586;37.730;2024-03-22T00:07:35;18.17;;;9.63;;
62711;SDS011;48772;55.586;37.730;2024-03-22T00:10:02;23.83;;;10.20;;
62711;SDS011;48772;55.586;37.730;2024-03-22T00:12:29;19.13;;;8.57;;
62711;SDS011;48772;55.586;37.730;2024-03-22T00:14:54;16.98;;;9.20;;
62711;SDS011;48772;55.586;37.730;2024-03-22T00:17:20;21.85;;;9.05;;
62711;SDS011;48772;55.586;37.730;2024-03-22T00:19:46;21.48;;;10.30;;
62711;SDS011;48772;55.586;37.730;2024-03-22T00:22:12;20.75;;;9.95;;
62711;SDS011;48772;55.586;37.730;2024-03-22T00:24:38;29.67;;;10.52;;
62711;SDS011;48772;55.586;37.730;2024-03-22T00:27:04;25.42;;;9.95;;
62711;SDS011;48772;55.586;37.730;2024-03-22T00:29:30;26.00;;;9.95;;
62711;SDS011;48772;55.586;37.730;2024-03-22T00:31:56;18.83;;;9.07;;
62711;SDS011;48772;55.586;37.730;2024-03-22T00:34:22;23.67;;;10.85;;
62711;SDS011;48772;55.586;37.730;2024-03-22T00:36:48;22.77;;;9.80;;
62711;SDS011;48772;55.586;37.730;2024-03-22T00:39:14;21.05;;;10.00;;
62711;SDS011;48772;55.586;37.730;2024-03-22T00:41:40;18.08;;;9.70;;
62711;SDS011;48772;55.586;37.730;2024-03-22T00:44:05;30.95;;;10.85;;
62711;SDS011;48772;55.586;37.730;2024-03-22T00:46:31;17.42;;;8.77;;
62711;SDS011;48772;55.586;37.730;2024-03-22T00:48:57;23.08;;;9.73;;
62711;SDS011;48772;55.586;37.730;2024-03-22T00:51:25;19.13;;;8.70;;
62711;SDS011;48772;55.586;37.730;2024-03-22T00:53:51;17.58;;;8.30;;
62711;SDS011;48772;55.586;37.730;2024-03-22T00:56:16;16.67;;;9.55;;
62711;SDS011;48772;55.586;37.730;2024-03-22T00:58:42;26.45;;;9.82;;
62711;SDS011;48772;55.586;37.730;2024-03-22T01:01:08;16.85;;;9.55;;
62711;SDS011;48772;55.586;37.730;2024-03-22T01:03:34;23.23;;;10.27;;
62711;SDS011;48772;55.586;37.730;2024-03-22T01:06:00;18.98;;;9.85;;
62711;SDS011;48772;55.586;37.730;2024-03-22T01:08:26;21.55;;;10.32;;
62711;SDS011;48772;55.586;37.730;2024-03-22T01:10:51;25.35;;;10.48;;
62711;SDS011;48772;55.586;37.730;2024-03-22T01:13:20;22.38;;;10.43;;
62711;SDS011;48772;55.586;37.730;2024-03-22T01:15:46;20.30;;;10.13;;
62711;SDS011;48772;55.586;37.730;2024-03-22T01:18:12;28.00;;;12.20;;
62711;SDS011;48772;55.586;37.730;2024-03-22T01:20:38;24.00;;;9.77;;
62711;SDS011;48772;55.586;37.730;2024-03-22T01:23:04;24.23;;;11.35;;
62711;SDS011;48772;55.586;37.730;2024-03-22T01:25:30;22.83;;;10.65;;
62711;SDS011;48772;55.586;37.730;2024-03-22T01:27:56;26.40;;;11.80;;
62711;SDS011;48772;55.586;37.730;2024-03-22T01:30:22;32.67;;;11.88;;
62711;SDS011;48772;55.586;37.730;2024-03-22T01:32:48;21.15;;;11.13;;
62711;SDS011;48772;55.586;37.730;2024-03-22T01:35:14;27.98;;;11.63;;
62711;SDS011;48772;55.586;37.730;2024-03-22T01:37:40;26.00;;;11.80;;
62711;SDS011;48772;55.586;37.730;2024-03-22T01:40:07;24.50;;;10.68;;
62711;SDS011;48772;55.586;37.730;2024-03-22T01:42:33;27.45;;;11.75;;
62711;SDS011;48772;55.586;37.730;2024-03-22T01:44:59;26.95;;;12.13;;
62711;SDS011;48772;55.586;37.730;2024-03-22T01:47:25;24.33;;;11.68;;
62711;SDS011;48772;55.586;37.730;2024-03-22T01:49:54;23.92;;;11.40;;
62711;SDS011;48772;55.586;37.730;2024-03-22T01:52:21;25.05;;;12.85;;
62711;SDS011;48772;55.586;37.730;2024-03-22T01:54:47;25.48;;;11.63;;
62711;SDS011;48772;55.586;37.730;2024-03-22T01:57:14;32.30;;;12.68;;
62711;SDS011;48772;55.586;37.730;2024-03-22T01:59:39;31.98;;;12.63;;
62711;SDS011;48772;55.586;37.730;2024-03-22T02:02:06;24.92;;;10.02;;
62711;SDS011;48772;55.586;37.730;2024-03-22T02:04:35;27.55;;;11.38;;
62711;SDS011;48772;55.586;37.730;2024-03-22T02:07:01;30.55;;;11.48;;
62711;SDS011;48772;55.586;37.730;2024-03-22T02:09:27;25.95;;;11.63;;
62711;SDS011;48772;55.586;37.730;2024-03-22T02:11:52;31.08;;;12.48;;
62711;SDS011;48772;55.586;37.730;2024-03-22T02:14:18;27.73;;;12.55;;
62711;SDS011;48772;55.586;37.730;2024-03-22T02:16:44;23.65;;;12.50;;
62711;SDS011;48772;55.586;37.730;2024-03-22T02:19:10;26.70;;;12.48;;
62711;SDS011;48772;55.586;37.730;2024-03-22T02:21:36;32.78;;;13.02;;
62711;SDS011;48772;55.586;37.730;2024-03-22T02:24:02;25.13;;;11.38;;
62711;SDS011;48772;55.586;37.730;2024-03-22T02:26:28;26.17;;;12.82;;
62711;SDS011;48772;55.586;37.730;2024-03-22T02:28:54;31.35;;;12.60;;
62711;SDS011;48772;55.586;37.730;2024-03-22T02:31:20;28.00;;;13.88;;
62711;SDS011;48772;55.586;37.730;2024-03-22T02:33:46;29.38;;;13.07;;
62711;SDS011;48772;55.586;37.730;2024-03-22T02:36:12;28.80;;;13.20;;
62711;SDS011;48772;55.586;37.730;2024-03-22T02:38:37;31.02;;;13.93;;
62711;SDS011;48772;55.586;37.730;2024-03-22T02:41:03;27.25;;;13.68;;
62711;SDS011;48772;55.586;37.730;2024-03-22T02:43:29;28.25;;;13.30;;
62711;SDS011;48772;55.586;37.730;2024-03-22T02:45:55;30.55;;;12.98;;
62711;SDS011;48772;55.586;37.730;2024-03-22T02:48:21;27.67;;;12.82;;
62711;SDS011;48772;55.586;37.730;2024-03-22T02:50:47;21.13;;;10.45;;
62711;SDS011;48772;55.586;37.730;2024-03-22T02:53:13;24.15;;;11.25;;
62711;SDS011;48772;55.586;37.730;2024-03-22T02:55:39;26.33;;;13.27;;
62711;SDS011;48772;55.586;37.730;2024-03-22T02:58:06;26.27;;;12.20;;
62711;SDS011;48772;55.586;37.730;2024-03-22T03:00:37;23.45;;;13.18;;
62711;SDS011;48772;55.586;37.730;2024-03-22T03:03:06;31.52;;;15.07;;
62711;SDS011;48772;55.586;37.730;2024-03-22T03:05:33;30.65;;;13.60;;
62711;SDS011;48772;55.586;37.730;2024-03-22T03:08:01;25.48;;;13.90;;
62711;SDS011;48772;55.586;37.730;2024-03-22T03:10:27;32.63;;;14.93;;
62711;SDS011;48772;55.586;37.730;2024-03-22T03:12:54;33.08;;;14.80;;
62711;SDS011;48772;55.586;37.730;2024-03-22T03:15:21;25.33;;;13.85;;
62711;SDS011;48772;55.586;37.730;2024-03-22T03:17:47;28.02;;;14.63;;
62711;SDS011;48772;55.586;37.730;2024-03-22T03:20:13;33.75;;;15.57;;
62711;SDS011;48772;55.586;37.730;2024-03-22T03:22:41;32.72;;;16.20;;
62711;SDS011;48772;55.586;37.730;2024-03-22T03:25:07;40.15;;;15.48;;
62711;SDS011;48772;55.586;37.730;2024-03-22T03:27:34;35.45;;;15.18;;
62711;SDS011;48772;55.586;37.730;2024-03-22T03:30:01;32.30;;;15.95;;
62711;SDS011;48772;55.586;37.730;2024-03-22T03:32:30;31.55;;;15.32;;
62711;SDS011;48772;55.586;37.730;2024-03-22T03:34:56;29.55;;;14.43;;
62711;SDS011;48772;55.586;37.730;2024-03-22T03:37:22;33.60;;;16.27;;
62711;SDS011;48772;55.586;37.730;2024-03-22T03:39:48;25.92;;;13.90;;
62711;SDS011;48772;55.586;37.730;2024-03-22T03:42:14;28.02;;;15.07;;
62711;SDS011;48772;55.586;37.730;2024-03-22T03:44:39;24.55;;;13.57;;
62711;SDS011;48772;55.586;37.730;2024-03-22T03:47:07;29.08;;;15.68;;
62711;SDS011;48772;55.586;37.730;2024-03-22T03:49:33;36.60;;;16.85;;
62711;SDS011;48772;55.586;37.730;2024-03-22T03:51:59;30.67;;;13.38;;
62711;SDS011;48772;55.586;37.730;2024-03-22T03:54:25;27.13;;;14.48;;
62711;SDS011;48772;55.586;37.730;2024-03-22T03:56:51;33.40;;;17.63;;
62711;SDS011;48772;55.586;37.730;2024-03-22T03:59:17;29.08;;;15.27;;
62711;SDS011;48772;55.586;37.730;2024-03-22T04:01:43;35.40;;;15.75;;
62711;SDS011;48772;55.586;37.730;2024-03-22T04:04:09;34.38;;;15.98;;
62711;SDS011;48772;55.586;37.730;2024-03-22T04:06:35;28.02;;;14.00;;
62711;SDS011;48772;55.586;37.730;2024-03-22T04:09:01;33.13;;;15.20;;
62711;SDS011;48772;55.586;37.730;2024-03-22T04:11:28;31.63;;;16.45;;
62711;SDS011;48772;55.586;37.730;2024-03-22T04:13:54;36.35;;;15.48;;
62711;SDS011;48772;55.586;37.730;2024-03-22T04:16:20;29.40;;;15.13;;
62711;SDS011;48772;55.586;37.730;2024-03-22T04:18:46;32.15;;;16.08;;
62711;SDS011;48772;55.586;37.730;2024-03-22T04:21:12;37.28;;;15.88;;
62711;SDS011;48772;55.586;37.730;2024-03-22T04:23:38;28.70;;;15.98;;
62711;SDS011;48772;55.586;37.730;2024-03-22T04:26:04;32.53;;;16.63;;
62711;SDS011;48772;55.586;37.730;2024-03-22T04:28:30;34.28;;;17.63;;
62711;SDS011;48772;55.586;37.730;2024-03-22T04:30:58;34.55;;;17.55;;
62711;SDS011;48772;55.586;37.730;2024-03-22T04:33:27;31.98;;;15.55;;
62711;SDS011;48772;55.586;37.730;2024-03-22T04:35:53;28.83;;;15.27;;
62711;SDS011;48772;55.586;37.730;2024-03-22T04:38:20;34.58;;;14.57;;
62711;SDS011;48772;55.586;37.730;2024-03-22T04:40:46;34.33;;;17.00;;
62711;SDS011;48772;55.586;37.730;2024-03-22T04:43:12;31.30;;;16.15;;
62711;SDS011;48772;55.586;37.730;2024-03-22T04:45:38;37.08;;;18.38;;
62711;SDS011;48772;55.586;37.730;2024-03-22T04:48:04;30.13;;;17.23;;
62711;SDS011;48772;55.586;37.730;2024-03-22T04:50:30;33.58;;;17.70;;
62711;SDS011;48772;55.586;37.730;2024-03-22T04:52:57;32.67;;;17.70;;
62711;SDS011;48772;55.586;37.730;2024-03-22T04:55:23;30.30;;;17.05;;
62711;SDS011;48772;55.586;37.730;2024-03-22T04:57:49;35.17;;;17.35;;
62711;SDS011;48772;55.586;37.730;2024-03-22T05:00:17;31.52;;;17.55;;
62711;SDS011;48772;55.586;37.730;2024-03-22T05:02:43;31.08;;;16.70;;
62711;SDS011;48772;55.586;37.730;2024-03-22T05:05:08;32.60;;;18.52;;
62711;SDS011;48772;55.586;37.730;2024-03-22T05:07:35;35.40;;;19.45;;
62711;SDS011;48772;55.586;37.730;2024-03-22T05:10:01;42.35;;;18.60;;
62711;SDS011;48772;55.586;37.730;2024-03-22T05:12:30;35.00;;;16.95;;
62711;SDS011;48772;55.586;37.730;2024-03-22T05:14:57;35.53;;;17.55;;
62711;SDS011;48772;55.586;37.730;2024-03-22T05:17:23;29.08;;;16.58;;
62711;SDS011;48772;55.586;37.730;2024-03-22T05:19:49;31.38;;;16.23;;
62711;SDS011;48772;55.586;37.730;2024-03-22T05:22:15;37.58;;;16.17;;
62711;SDS011;48772;55.586;37.730;2024-03-22T05:24:41;41.92;;;17.40;;
62711;SDS011;48772;55.586;37.730;2024-03-22T05:27:07;30.92;;;17.58;;
62711;SDS011;48772;55.586;37.730;2024-03-22T05:29:33;30.33;;;15.75;;
62711;SDS011;48772;55.586;37.730;2024-03-22T05:31:59;43.33;;;18.40;;
62711;SDS011;48772;55.586;37.730;2024-03-22T05:34:26;31.00;;;17.25;;
62711;SDS011;48772;55.586;37.730;2024-03-22T05:36:51;33.53;;;18.48;;
62711;SDS011;48772;55.586;37.730;2024-03-22T05:39:17;32.30;;;19.17;;
62711;SDS011;48772;55.586;37.730;2024-03-22T05:41:43;35.58;;;18.75;;
62711;SDS011;48772;55.586;37.730;2024-03-22T05:44:09;27.88;;;17.67;;
62711;SDS011;48772;55.586;37.730;2024-03-22T05:46:35;41.25;;;16.80;;
62711;SDS011;48772;55.586;37.730;2024-03-22T05:49:01;34.92;;;17.45;;
62711;SDS011;48772;55.586;37.730;2024-03-22T05:51:26;33.20;;;19.70;;
62711;SDS011;48772;55.586;37.730;2024-03-22T05:53:52;26.45;;;14.27;;
62711;SDS011;48772;55.586;37.730;2024-03-22T05:56:19;32.95;;;19.25;;
62711;SDS011;48772;55.586;37.730;2024-03-22T05:58:44;28.52;;;16.23;;
62711;SDS011;48772;55.586;37.730;2024-03-22T06:01:10;31.88;;;18.02;;
62711;SDS011;48772;55.586;37.730;2024-03-22T06:03:36;34.83;;;17.67;;
62711;SDS011;48772;55.586;37.730;2024-03-22T06:06:03;38.35;;;18.40;;
62711;SDS011;48772;55.586;37.730;2024-03-22T06:08:29;30.40;;;17.90;;
62711;SDS011;48772;55.586;37.730;2024-03-22T06:10:57;34.70;;;19.77;;
62711;SDS011;48772;55.586;37.730;2024-03-22T06:13:22;37.67;;;19.40;;
62711;SDS011;48772;55.586;37.730;2024-03-22T06:15:48;35.03;;;19.58;;
62711;SDS011;48772;55.586;37.730;2024-03-22T06:18:15;30.63;;;18.50;;
62711;SDS011;48772;55.586;37.730;2024-03-22T06:20:41;30.80;;;18.70;;
62711;SDS011;48772;55.586;37.730;2024-03-22T06:23:07;35.15;;;19.90;;
62711;SDS011;48772;55.586;37.730;2024-03-22T06:25:34;38.25;;;19.02;;
62711;SDS011;48772;55.586;37.730;2024-03-22T06:28:00;35.47;;;19.90;;
62711;SDS011;48772;55.586;37.730;2024-03-22T06:30:26;40.85;;;19.17;;
62711;SDS011;48772;55.586;37.730;2024-03-22T06:32:53;37.78;;;20.20;;
62711;SDS011;48772;55.586;37.730;2024-03-22T06:35:20;39.60;;;18.60;;
62711;SDS011;48772;55.586;37.730;2024-03-22T06:37:47;35.70;;;19.45;;
62711;SDS011;48772;55.586;37.730;2024-03-22T06:40:14;40.95;;;19.15;;
62711;SDS011;48772;55.586;37.730;2024-03-22T06:42:41;39.03;;;19.20;;
62711;SDS011;48772;55.586;37.730;2024-03-22T06:45:07;41.33;;;19.70;;
62711;SDS011;48772;55.586;37.730;2024-03-22T06:47:33;31.73;;;19.02;;
62711;SDS011;48772;55.586;37.730;2024-03-22T06:49:59;32.25;;;19.85;;
62711;SDS011;48772;55.586;37.730;2024-03-22T06:52:25;42.65;;;19.73;;
62711;SDS011;48772;55.586;37.730;2024-03-22T06:54:51;33.70;;;19.52;;
62711;SDS011;48772;55.586;37.730;2024-03-22T06:57:18;41.05;;;20.20;;
62711;SDS011;48772;55.586;37.730;2024-03-22T06:59:43;38.20;;;18.48;;
62711;SDS011;48772;55.586;37.730;2024-03-22T07:02:09;39.33;;;18.88;;
62711;SDS011;48772;55.586;37.730;2024-03-22T07:04:35;35.70;;;18.70;;
62711;SDS011;48772;55.586;37.730;2024-03-22T07:07:02;31.13;;;17.92;;
62711;SDS011;48772;55.586;37.730;2024-03-22T07:09:28;36.20;;;19.75;;
62711;SDS011;48772;55.586;37.730;2024-03-22T07:11:55;22.02;;;13.15;;
62711;SDS011;48772;55.586;37.730;2024-03-22T07:14:21;34.50;;;18.58;;
62711;SDS011;48772;55.586;37.730;2024-03-22T07:16:52;38.20;;;19.23;;
62711;SDS011;48772;55.586;37.730;2024-03-22T07:19:21;37.40;;;19.75;;
62711;SDS011;48772;55.586;37.730;2024-03-22T07:21:47;33.65;;;18.65;;
62711;SDS011;48772;55.586;37.730;2024-03-22T07:24:13;32.20;;;18.92;;
62711;SDS011;48772;55.586;37.730;2024-03-22T07:26:39;35.33;;;18.83;;
62711;SDS011;48772;55.586;37.730;2024-03-22T07:29:05;34.15;;;17.90;;
62711;SDS011;48772;55.586;37.730;2024-03-22T07:31:31;42.15;;;18.90;;
62711;SDS011;48772;55.586;37.730;2024-03-22T07:33:57;31.80;;;18.25;;
62711;SDS011;48772;55.586;37.730;2024-03-22T07:36:23;41.63;;;19.33;;
62711;SDS011;48772;55.586;37.730;2024-03-22T07:38:49;29.67;;;18.85;;
62711;SDS011;48772;55.586;37.730;2024-03-22T07:41:15;40.58;;;19.88;;
62711;SDS011;48772;55.586;37.730;2024-03-22T07:43:41;42.35;;;18.90;;
62711;SDS011;48772;55.586;37.730;2024-03-22T07:46:07;35.45;;;18.50;;
62711;SDS011;48772;55.586;37.730;2024-03-22T07:48:33;32.90;;;18.02;;
62711;SDS011;48772;55.586;37.730;2024-03-22T07:50:59;41.22;;;19.35;;
62711;SDS011;48772;55.586;37.730;2024-03-22T07:53:25;37.70;;;19.02;;
62711;SDS011;48772;55.586;37.730;2024-03-22T07:55:51;27.77;;;18.00;;
62711;SDS011;48772;55.586;37.730;2024-03-22T07:58:17;36.28;;;16.95;;
62711;SDS011;48772;55.586;37.730;2024-03-22T08:00:43;39.53;;;19.10;;
62711;SDS011;48772;55.586;37.730;2024-03-22T08:03:13;38.05;;;18.48;;
62711;SDS011;48772;55.586;37.730;2024-03-22T08:05:40;30.25;;;17.27;;
62711;SDS011;48772;55.586;37.730;2024-03-22T08:08:07;21.63;;;13.88;;
62711;SDS011;48772;55.586;37.730;2024-03-22T08:10:32;20.27;;;12.55;;
62711;SDS011;48772;55.586;37.730;2024-03-22T08:12:59;20.95;;;12.55;;
62711;SDS011;48772;55.586;37.730;2024-03-22T08:15:26;26.73;;;11.10;;
62711;SDS011;48772;55.586;37.730;2024-03-22T08:17:53;33.17;;;13.23;;
62711;SDS011;48772;55.586;37.730;2024-03-22T08:20:19;25.58;;;11.13;;
62711;SDS011;48772;55.586;37.730;2024-03-22T08:22:45;22.83;;;13.00;;
62711;SDS011;48772;55.586;37.730;2024-03-22T08:25:10;27.63;;;13.82;;
62711;SDS011;48772;55.586;37.730;2024-03-22T08:27:38;24.13;;;11.70;;
62711;SDS011;48772;55.586;37.730;2024-03-22T08:30:04;22.95;;;12.70;;
62711;SDS011;48772;55.586;37.730;2024-03-22T08:32:32;18.75;;;11.32;;
62711;SDS011;48772;55.586;37.730;2024-03-22T08:34:58;24.65;;;9.82;;
62711;SDS011;48772;55.586;37.730;2024-03-22T08:37:24;20.42;;;9.75;;
62711;SDS011;48772;55.586;37.730;2024-03-22T08:39:49;21.85;;;9.23;;
62711;SDS011;48772;55.586;37.730;2024-03-22T08:42:15;21.45;;;10.13;;
62711;SDS011;48772;55.586;37.730;2024-03-22T08:44:41;19.55;;;10.07;;
62711;SDS011;48772;55.586;37.730;2024-03-22T08:47:08;19.73;;;8.85;;
62711;SDS011;48772;55.586;37.730;2024-03-22T08:49:34;20.80;;;10.23;;
62711;SDS011;48772;55.586;37.730;2024-03-22T08:52:02;24.65;;;11.05;;
62711;SDS011;48772;55.586;37.730;2024-03-22T08:54:27;31.90;;;11.75;;
62711;SDS011;48772;55.586;37.730;2024-03-22T08:56:53;15.43;;;8.52;;
62711;SDS011;48772;55.586;37.730;2024-03-22T08:59:19;23.88;;;10.27;;
62711;SDS011;48772;55.586;37.730;2024-03-22T09:01:45;24.38;;;10.70;;
62711;SDS011;48772;55.586;37.730;2024-03-22T09:04:13;18.20;;;10.15;;
62711;SDS011;48772;55.586;37.730;2024-03-22T09:06:41;27.95;;;11.45;;
62711;SDS011;48772;55.586;37.730;2024-03-22T09:09:07;22.50;;;12.00;;
62711;SDS011;48772;55.586;37.730;2024-03-22T09:11:33;28.67;;;10.30;;
62711;SDS011;48772;55.586;37.730;2024-03-22T09:13:59;26.73;;;10.40;;
62711;SDS011;48772;55.586;37.730;2024-03-22T09:16:25;25.98;;;11.23;;
62711;SDS011;48772;55.586;37.730;2024-03-22T09:18:51;27.90;;;11.30;;
62711;SDS011;48772;55.586;37.730;2024-03-22T09:21:17;27.10;;;10.77;;
62711;SDS011;48772;55.586;37.730;2024-03-22T09:23:43;24.35;;;10.52;;
62711;SDS011;48772;55.586;37.730;2024-03-22T09:26:09;17.50;;;8.45;;
62711;SDS011;48772;55.586;37.730;2024-03-22T09:28:34;14.95;;;9.00;;
62711;SDS011;48772;55.586;37.730;2024-03-22T09:31:04;18.65;;;9.30;;
62711;SDS011;48772;55.586;37.730;2024-03-22T09:33:32;20.92;;;9.60;;
62711;SDS011;48772;55.586;37.730;2024-03-22T09:36:02;15.50;;;9.40;;
62711;SDS011;48772;55.586;37.730;2024-03-22T09:38:28;21.83;;;9.18;;
62711;SDS011;48772;55.586;37.730;2024-03-22T09:40:54;30.75;;;9.57;;
62711;SDS011;48772;55.586;37.730;2024-03-22T09:43:21;14.13;;;8.10;;
62711;SDS011;48772;55.586;37.730;2024-03-22T09:45:47;17.13;;;8.30;;
62711;SDS011;48772;55.586;37.730;2024-03-22T09:48:17;14.10;;;8.40;;
62711;SDS011;48772;55.586;37.730;2024-03-22T09:50:45;20.50;;;9.10;;
62711;SDS011;48772;55.586;37.730;2024-03-22T09:53:19;14.68;;;8.07;;
62711;SDS011;48772;55.586;37.730;2024-03-22T09:55:47;17.90;;;9.38;;
62711;SDS011;48772;55.586;37.730;2024-03-22T09:58:14;13.95;;;8.23;;
62711;SDS011;48772;55.586;37.730;2024-03-22T10:00:42;18.35;;;7.82;;
62711;SDS011;48772;55.586;37.730;2024-03-22T10:03:09;18.25;;;8.57;;
62711;SDS011;48772;55.586;37.730;2024-03-22T10:05:36;19.10;;;8.20;;
62711;SDS011;48772;55.586;37.730;2024-03-22T10:08:02;15.43;;;8.90;;
62711;SDS011;48772;55.586;37.730;2024-03-22T10:10:31;16.15;;;8.18;;
62711;SDS011;48772;55.586;37.730;2024-03-22T10:13:00;17.67;;;8.25;;
62711;SDS011;48772;55.586;37.730;2024-03-22T10:15:26;20.73;;;7.90;;
62711;SDS011;48772;55.586;37.730;2024-03-22T10:17:52;14.40;;;8.70;;
62711;SDS011;48772;55.586;37.730;2024-03-22T10:20:21;16.50;;;8.23;;
62711;SDS011;48772;55.586;37.730;2024-03-22T10:22:57;17.02;;;8.50;;
62711;SDS011;48772;55.586;37.730;2024-03-22T10:25:27;18.63;;;8.10;;
62711;SDS011;48772;55.586;37.730;2024-03-22T10:27:56;15.55;;;8.25;;
62711;SDS011;48772;55.586;37.730;2024-03-22T10:30:23;20.65;;;8.52;;
62711;SDS011;48772;55.586;37.730;2024-03-22T10:32:51;17.95;;;8.35;;
62711;SDS011;48772;55.586;37.730;2024-03-22T10:35:17;18.42;;;8.02;;
62711;SDS011;48772;55.586;37.730;2024-03-22T10:37:44;15.90;;;8.25;;
62711;SDS011;48772;55.586;37.730;2024-03-22T10:40:10;12.93;;;7.10;;
62711;SDS011;48772;55.586;37.730;2024-03-22T10:42:37;13.63;;;7.32;;
62711;SDS011;48772;55.586;37.730;2024-03-22T10:45:05;16.15;;;7.55;;
62711;SDS011;48772;55.586;37.730;2024-03-22T10:47:33;16.73;;;8.35;;
62711;SDS011;48772;55.586;37.730;2024-03-22T10:50:03;17.40;;;8.40;;
62711;SDS011;48772;55.586;37.730;2024-03-22T10:52:33;18.02;;;8.35;;
62711;SDS011;48772;55.586;37.730;2024-03-22T10:55:04;16.58;;;8.13;;
62711;SDS011;48772;55.586;37.730;2024-03-22T10:57:32;17.40;;;7.22;;
62711;SDS011;48772;55.586;37.730;2024-03-22T11:00:04;14.68;;;7.88;;
62711;SDS011;48772;55.586;37.730;2024-03-22T11:02:36;16.77;;;7.97;;
62711;SDS011;48772;55.586;37.730;2024-03-22T11:05:03;17.40;;;8.30;;
62711;SDS011;48772;55.586;37.730;2024-03-22T11:07:30;15.38;;;8.02;;
62711;SDS011;48772;55.586;37.730;2024-03-22T11:09:57;12.55;;;7.25;;
62711;SDS011;48772;55.586;37.730;2024-03-22T11:12:27;13.43;;;7.95;;
62711;SDS011;48772;55.586;37.730;2024-03-22T11:14:53;10.70;;;5.40;;
62711;SDS011;48772;55.586;37.730;2024-03-22T11:17:19;11.02;;;6.50;;
62711;SDS011;48772;55.586;37.730;2024-03-22T11:19:53;15.05;;;7.75;;
62711;SDS011;48772;55.586;37.730;2024-03-22T11:22:20;16.40;;;8.52;;
62711;SDS011;48772;55.586;37.730;2024-03-22T11:24:46;17.05;;;7.10;;
62711;SDS011;48772;55.586;37.730;2024-03-22T11:27:12;17.98;;;7.68;;
62711;SDS011;48772;55.586;37.730;2024-03-22T11:29:39;11.80;;;6.07;;
62711;SDS011;48772;55.586;37.730;2024-03-22T11:32:07;9.95;;;5.25;;
62711;SDS011;48772;55.586;37.730;2024-03-22T11:34:39;13.60;;;7.65;;
62711;SDS011;48772;55.586;37.730;2024-03-22T11:37:07;14.50;;;6.82;;
62711;SDS011;48772;55.586;37.730;2024-03-22T11:39:36;10.25;;;5.50;;
62711;SDS011;48772;55.586;37.730;2024-03-22T11:42:04;13.93;;;5.72;;
62711;SDS011;48772;55.586;37.730;2024-03-22T11:44:36;13.85;;;7.10;;
62711;SDS011;48772;55.586;37.730;2024-03-22T11:47:08;13.95;;;7.47;;
62711;SDS011;48772;55.586;37.730;2024-03-22T11:49:34;18.55;;;7.80;;
62711;SDS011;48772;55.586;37.730;2024-03-22T11:52:00;14.35;;;7.45;;
62711;SDS011;48772;55.586;37.730;2024-03-22T11:54:26;14.15;;;6.53;;
62711;SDS011;48772;55.586;37.730;2024-03-22T11:56:55;12.18;;;6.22;;
62711;SDS011;48772;55.586;37.730;2024-03-22T11:59:22;10.70;;;5.93;;
62711;SDS011;48772;55.586;37.730;2024-03-22T12:01:48;15.40;;;7.60;;
62711;SDS011;48772;55.586;37.730;2024-03-22T12:04:13;17.08;;;7.75;;
62711;SDS011;48772;55.586;37.730;2024-03-22T12:06:43;12.55;;;6.95;;
62711;SDS011;48772;55.586;37.730;2024-03-22T12:09:12;11.75;;;6.97;;
62711;SDS011;48772;55.586;37.730;2024-03-22T12:11:39;12.25;;;7.05;;
62711;SDS011;48772;55.586;37.730;2024-03-22T12:14:06;16.95;;;6.97;;
62711;SDS011;48772;55.586;37.730;2024-03-22T12:16:32;8.63;;;4.75;;
62711;SDS011;48772;55.586;37.730;2024-03-22T12:18:58;13.35;;;6.50;;
62711;SDS011;48772;55.586;37.730;2024-03-22T12:21:24;12.50;;;6.82;;
62711;SDS011;48772;55.586;37.730;2024-03-22T12:23:50;16.23;;;6.30;;
62711;SDS011;48772;55.586;37.730;2024-03-22T12:26:16;12.93;;;5.95;;
62711;SDS011;48772;55.586;37.730;2024-03-22T12:28:43;10.70;;;6.20;;
62711;SDS011;48772;55.586;37.730;2024-03-22T12:31:09;13.70;;;6.90;;
62711;SDS011;48772;55.586;37.730;2024-03-22T12:33:38;14.05;;;5.93;;
62711;SDS011;48772;55.586;37.730;2024-03-22T12:36:04;11.50;;;6.18;;
62711;SDS011;48772;55.586;37.730;2024-03-22T12:38:30;12.55;;;4.30;;
62711;SDS011;48772;55.586;37.730;2024-03-22T12:40:56;14.13;;;6.45;;
62711;SDS011;48772;55.586;37.730;2024-03-22T12:43:23;8.75;;;5.40;;
62711;SDS011;48772;55.586;37.730;2024-03-22T12:45:49;11.85;;;5.75;;
62711;SDS011;48772;55.586;37.730;2024-03-22T12:48:15;9.38;;;4.78;;
62711;SDS011;48772;55.586;37.730;2024-03-22T12:50:41;18.88;;;6.43;;
62711;SDS011;48772;55.586;37.730;2024-03-22T12:53:07;12.40;;;5.32;;
62711;SDS011;48772;55.586;37.730;2024-03-22T12:55:33;10.68;;;4.45;;
62711;SDS011;48772;55.586;37.730;2024-03-22T12:57:58;11.38;;;7.05;;
62711;SDS011;48772;55.586;37.730;2024-03-22T13:00:24;15.40;;;7.25;;
62711;SDS011;48772;55.586;37.730;2024-03-22T13:02:50;10.70;;;4.63;;
62711;SDS011;48772;55.586;37.730;2024-03-22T13:05:17;15.73;;;6.70;;
62711;SDS011;48772;55.586;37.730;2024-03-22T13:07:43;11.70;;;6.47;;
62711;SDS011;48772;55.586;37.730;2024-03-22T13:10:09;11.68;;;5.03;;
62711;SDS011;48772;55.586;37.730;2024-03-22T13:12:35;8.60;;;4.80;;
62711;SDS011;48772;55.586;37.730;2024-03-22T13:15:02;20.55;;;7.90;;
62711;SDS011;48772;55.586;37.730;2024-03-22T13:17:31;13.02;;;6.78;;
62711;SDS011;48772;55.586;37.730;2024-03-22T13:19:57;12.88;;;6.75;;
62711;SDS011;48772;55.586;37.730;2024-03-22T13:22:23;13.20;;;5.95;;
62711;SDS011;48772;55.586;37.730;2024-03-22T13:24:49;10.88;;;6.28;;
62711;SDS011;48772;55.586;37.730;2024-03-22T13:27:16;13.52;;;6.63;;
62711;SDS011;48772;55.586;37.730;2024-03-22T13:29:42;14.68;;;6.70;;
62711;SDS011;48772;55.586;37.730;2024-03-22T13:32:08;13.50;;;7.53;;
62711;SDS011;48772;55.586;37.730;2024-03-22T13:34:37;14.77;;;6.65;;
62711;SDS011;48772;55.586;37.730;2024-03-22T13:37:04;16.13;;;7.25;;
62711;SDS011;48772;55.586;37.730;2024-03-22T13:39:31;15.90;;;7.00;;
62711;SDS011;48772;55.586;37.730;2024-03-22T13:41:57;10.18;;;6.32;;
62711;SDS011;48772;55.586;37.730;2024-03-22T13:44:24;13.40;;;7.53;;
62711;SDS011;48772;55.586;37.730;2024-03-22T13:46:51;9.70;;;6.05;;
62711;SDS011;48772;55.586;37.730;2024-03-22T13:49:18;14.75;;;6.82;;
62711;SDS011;48772;55.586;37.730;2024-03-22T13:51:46;13.05;;;7.55;;
62711;SDS011;48772;55.586;37.730;2024-03-22T13:54:13;12.95;;;6.53;;
62711;SDS011;48772;55.586;37.730;2024-03-22T13:56:39;12.73;;;6.72;;
62711;SDS011;48772;55.586;37.730;2024-03-22T13:59:05;11.35;;;7.18;;
62711;SDS011;48772;55.586;37.730;2024-03-22T14:01:33;13.95;;;7.07;;
62711;SDS011;48772;55.586;37.730;2024-03-22T14:03:59;16.83;;;6.53;;
62711;SDS011;48772;55.586;37.730;2024-03-22T14:06:24;10.43;;;5.20;;
62711;SDS011;48772;55.586;37.730;2024-03-22T14:08:50;10.30;;;5.82;;